createdAt,value
2018-05-03T00:04:30.054Z,60.20
2018-05-03T00:09:32.319Z,61.90
2018-05-03T00:14:34.011Z,61.90
2018-05-03T00:19:36.251Z,61.40
2018-05-03T00:24:37.784Z,61.30
2018-05-03T00:29:39.349Z,60.80
2018-05-03T00:34:40.894Z,61.20
2018-05-03T00:39:43.112Z,61.50
2018-05-03T00:44:44.647Z,61.50
2018-05-03T00:49:46.907Z,62.10
2018-05-03T00:54:48.433Z,62.00
2018-05-03T00:59:49.955Z,61.40
2018-05-03T01:04:51.505Z,62.20
2018-05-03T01:09:53.026Z,64.00
2018-05-03T01:14:54.558Z,65.40
2018-05-03T01:19:56.883Z,65.10
2018-05-03T01:24:58.534Z,65.00
2018-05-03T01:30:00.935Z,66.20
2018-05-03T01:35:15.787Z,66.10
2018-05-03T01:40:25.150Z,66.30
2018-05-03T01:45:27.499Z,65.80
2018-05-03T01:50:28.996Z,65.70
2018-05-03T01:55:31.313Z,65.30
2018-05-03T02:00:32.848Z,65.30
2018-05-03T02:05:35.267Z,67.10
2018-05-03T02:10:36.814Z,67.10
2018-05-03T02:15:39.039Z,64.70
2018-05-03T02:20:40.615Z,64.70
2018-05-03T02:25:42.224Z,64.90
2018-05-03T02:30:44.530Z,66.60
2018-05-03T02:35:46.082Z,66.50
2018-05-03T02:40:48.364Z,68.80
2018-05-03T02:45:50.627Z,69.20
2018-05-03T02:50:52.171Z,69.20
2018-05-03T02:55:53.879Z,69.30
2018-05-03T03:17:42.888Z,70.60
2018-05-03T03:23:09.064Z,71.10
2018-05-03T03:28:35.083Z,71.90
2018-05-03T03:33:55.067Z,71.10
2018-05-03T03:39:15.895Z,68.90
2018-05-03T04:00:21.255Z,67.40
2018-05-03T04:05:22.794Z,67.30
2018-05-03T04:10:24.295Z,66.90
2018-05-03T04:15:25.833Z,66.60
2018-05-03T04:21:02.206Z,64.40
2018-05-03T04:26:03.754Z,64.30
2018-05-03T04:31:05.296Z,62.80
2018-05-03T04:36:06.818Z,61.40
2018-05-03T04:41:09.587Z,57.20
2018-05-03T04:46:11.127Z,57.20
2018-05-03T04:51:12.685Z,55.50
2018-05-03T04:56:14.220Z,55.30
2018-05-03T05:01:16.517Z,55.40
2018-05-03T05:06:18.812Z,55.70
2018-05-03T05:11:20.347Z,55.50
2018-05-03T05:16:21.872Z,55.70
2018-05-03T05:21:23.396Z,59.70
2018-05-03T05:26:25.688Z,59.90
2018-05-03T05:31:27.977Z,59.70
2018-05-03T05:36:30.219Z,59.00
2018-05-03T05:41:31.763Z,58.90
2018-05-03T05:46:33.311Z,55.70
2018-05-03T05:51:34.811Z,55.60
2018-05-03T05:56:36.297Z,53.50
2018-05-03T06:01:37.857Z,52.80
2018-05-03T06:06:39.432Z,53.60
2018-05-03T06:11:40.964Z,55.00
2018-05-03T06:16:42.515Z,56.60
2018-05-03T06:21:44.062Z,58.00
2018-05-03T06:26:46.328Z,57.80
2018-05-03T06:31:48.040Z,57.80
2018-05-03T06:36:49.621Z,57.10
2018-05-03T06:41:51.156Z,57.50
2018-05-03T06:46:53.398Z,59.20
2018-05-03T06:51:54.916Z,59.20
2018-05-03T06:56:57.207Z,58.70
2018-05-03T07:01:58.696Z,58.70
2018-05-03T07:07:00.200Z,58.40
2018-05-03T07:12:01.804Z,58.10
2018-05-03T07:17:04.292Z,56.30
2018-05-03T07:22:06.634Z,55.50
2018-05-03T07:27:08.163Z,55.50
2018-05-03T07:32:09.688Z,55.10
2018-05-03T07:37:11.241Z,56.10
2018-05-03T07:42:12.784Z,55.90
2018-05-03T07:47:14.296Z,55.60
2018-05-03T07:52:15.828Z,55.50
2018-05-03T07:57:17.623Z,55.90
2018-05-03T08:02:19.343Z,55.60
2018-05-03T08:07:20.896Z,55.50
2018-05-03T08:12:23.189Z,58.10
2018-05-03T08:17:24.736Z,58.10
2018-05-03T08:22:26.447Z,58.10
2018-05-03T08:27:27.964Z,54.90
2018-05-03T08:32:29.467Z,53.90
2018-05-03T08:37:30.997Z,54.10
2018-05-03T08:42:32.524Z,53.00
2018-05-03T08:47:34.043Z,53.00
2018-05-03T08:52:35.550Z,51.80
2018-05-03T08:57:37.115Z,53.00
2018-05-03T09:02:38.642Z,51.20
2018-05-03T09:07:47.178Z,51.20
2018-05-03T09:12:48.869Z,50.40
2018-05-03T09:17:51.173Z,51.80
2018-05-03T09:22:52.679Z,51.70
2018-05-03T09:27:54.203Z,51.20
2018-05-03T09:32:55.766Z,49.40
2018-05-03T09:37:57.290Z,50.00
2018-05-03T09:42:58.806Z,48.30
2018-05-03T09:48:00.313Z,51.60
2018-05-03T09:53:08.927Z,48.40
2018-05-03T09:58:10.480Z,48.50
2018-05-03T10:03:11.999Z,46.00
2018-05-03T10:08:13.516Z,45.40
2018-05-03T10:13:16.014Z,46.00
2018-05-03T10:18:17.680Z,44.00
2018-05-03T10:23:19.219Z,44.20
2018-05-03T10:28:21.471Z,46.30
2018-05-03T10:33:23.008Z,46.20
2018-05-03T10:38:24.505Z,47.00
2018-05-03T10:43:26.042Z,43.70
2018-05-03T10:48:27.543Z,41.90
2018-05-03T10:53:29.080Z,40.90
2018-05-03T10:58:30.643Z,40.40
2018-05-03T11:03:32.226Z,38.60
2018-05-03T11:08:33.750Z,39.10
2018-05-03T11:13:36.040Z,37.60
2018-05-03T11:18:37.707Z,37.50
2018-05-03T11:23:40.024Z,38.50
2018-05-03T11:28:41.675Z,38.50
2018-05-03T11:33:43.222Z,37.30
2018-05-03T11:38:45.742Z,38.30
2018-05-03T11:43:47.383Z,38.20
2018-05-03T11:48:49.723Z,40.50
2018-05-03T11:53:51.235Z,40.40
2018-05-03T11:58:53.526Z,36.00
2018-05-03T12:03:55.822Z,35.90
2018-05-03T12:08:57.395Z,35.90
2018-05-03T12:13:58.916Z,35.20
2018-05-03T12:19:00.479Z,36.30
2018-05-03T12:24:02.318Z,38.70
2018-05-03T12:29:03.876Z,41.30
2018-05-03T12:34:05.650Z,42.20
2018-05-03T12:39:07.325Z,42.90
2018-05-03T12:44:08.856Z,44.90
2018-05-03T12:49:10.554Z,42.70
2018-05-03T12:54:12.314Z,45.10
2018-05-03T12:59:14.696Z,38.10
2018-05-03T13:04:17.007Z,38.70
2018-05-03T13:09:18.577Z,38.50
2018-05-03T13:14:20.132Z,38.30
2018-05-03T13:19:22.501Z,37.20
2018-05-03T13:24:24.060Z,37.20
2018-05-03T13:29:25.594Z,40.10
2018-05-03T13:34:27.209Z,39.70
2018-05-03T13:39:28.662Z,40.20
2018-05-03T13:44:30.244Z,39.60
2018-05-03T13:49:32.542Z,41.40
2018-05-03T13:54:34.932Z,40.40
2018-05-03T13:59:37.271Z,41.40
2018-05-03T14:04:38.833Z,41.40
2018-05-03T14:09:40.377Z,42.40
2018-05-03T14:14:41.958Z,43.70
2018-05-03T14:19:43.507Z,41.20
2018-05-03T14:24:45.140Z,42.30
2018-05-03T14:29:46.657Z,41.20
2018-05-03T14:34:48.209Z,41.80
2018-05-03T14:39:49.727Z,41.60
2018-05-03T14:44:51.260Z,40.10
2018-05-03T14:49:52.768Z,39.60
2018-05-03T14:54:54.317Z,39.40
2018-05-03T14:59:55.870Z,39.40
2018-05-03T15:04:57.448Z,41.40
2018-05-03T15:09:58.955Z,38.70
2018-05-03T15:15:01.455Z,41.50
2018-05-03T15:20:03.729Z,43.80
2018-05-03T15:25:05.287Z,42.90
2018-05-03T15:30:07.522Z,43.30
2018-05-03T15:35:09.127Z,42.40
2018-05-03T15:40:10.735Z,42.20
2018-05-03T15:45:13.219Z,42.60
2018-05-03T15:50:15.512Z,42.80
2018-05-03T15:55:17.751Z,42.10
2018-05-03T16:00:19.280Z,42.20
2018-05-03T16:05:20.795Z,43.10
2018-05-03T16:10:22.339Z,44.50
2018-05-03T16:15:23.854Z,43.00
2018-05-03T16:20:26.241Z,43.10
2018-05-03T16:25:27.711Z,43.10
2018-05-03T16:30:29.972Z,41.90
2018-05-03T16:35:31.517Z,41.70
2018-05-03T16:40:33.048Z,44.20
2018-05-03T16:45:34.759Z,42.00
2018-05-03T16:50:36.477Z,40.50
2018-05-03T16:55:38.763Z,45.20
2018-05-03T17:00:41.163Z,44.50
2018-05-03T17:05:42.734Z,44.50
2018-05-03T17:10:44.260Z,43.70
2018-05-03T17:15:45.772Z,43.00
2018-05-03T17:20:47.376Z,42.40
2018-05-03T17:25:49.109Z,44.30
2018-05-03T17:30:50.616Z,43.80
2018-05-03T17:35:52.140Z,44.20
2018-05-03T17:40:53.698Z,45.80
2018-05-03T17:45:56.101Z,45.00
2018-05-03T17:50:57.648Z,45.00
2018-05-03T17:56:00.148Z,45.60
2018-05-03T18:01:02.563Z,46.60
2018-05-03T18:06:04.104Z,46.60
2018-05-03T18:11:06.456Z,46.00
2018-05-03T18:16:08.050Z,46.00
2018-05-03T18:21:09.640Z,46.50
2018-05-03T18:26:18.247Z,46.70
2018-05-03T18:31:19.909Z,47.40
2018-05-03T18:36:21.492Z,47.20
2018-05-03T18:41:23.907Z,47.30
2018-05-03T18:46:26.564Z,47.30
2018-05-03T18:51:28.266Z,46.90
2018-05-03T18:56:29.806Z,47.50
2018-05-03T19:01:31.453Z,48.30
2018-05-03T19:06:33.074Z,49.30
2018-05-03T19:11:34.734Z,49.50
2018-05-03T19:16:36.241Z,49.50
2018-05-03T19:21:37.968Z,50.70
2018-05-03T19:26:40.324Z,51.60
2018-05-03T19:31:42.037Z,51.50
2018-05-03T19:36:43.581Z,51.10
2018-05-03T19:41:45.280Z,50.80
2018-05-03T19:46:46.853Z,50.90
2018-05-03T19:51:48.400Z,51.60
2018-05-03T19:56:50.766Z,50.60
2018-05-03T20:01:52.299Z,50.50
2018-05-03T20:06:53.871Z,50.40
2018-05-03T20:11:55.425Z,50.50
2018-05-03T20:16:57.016Z,50.90
2018-05-03T20:21:58.607Z,51.00
2018-05-03T20:27:00.141Z,50.90
2018-05-03T20:32:01.727Z,50.30
2018-05-03T20:37:03.302Z,50.20
2018-05-03T20:42:04.886Z,50.20
2018-05-03T20:47:06.449Z,50.00
2018-05-03T20:52:08.102Z,49.10
2018-05-03T20:57:09.671Z,48.40
2018-05-03T21:02:11.273Z,47.60
2018-05-03T21:07:13.818Z,46.80
2018-05-03T21:12:15.411Z,47.40
2018-05-03T21:17:16.935Z,47.00
2018-05-03T21:22:18.468Z,47.00
2018-05-03T21:27:20.287Z,46.50
2018-05-03T21:32:21.854Z,47.10
2018-05-03T21:37:23.434Z,46.70
2018-05-03T21:42:24.940Z,46.50
2018-05-03T21:47:26.479Z,46.10
2018-05-03T21:52:28.074Z,45.90
2018-05-03T21:57:29.629Z,46.30
2018-05-03T22:02:31.166Z,46.40
2018-05-03T22:07:32.877Z,46.30
2018-05-03T22:12:34.398Z,46.20
2018-05-03T22:17:35.960Z,46.10
2018-05-03T22:22:37.614Z,46.90
2018-05-03T22:27:39.907Z,47.50
2018-05-03T22:32:41.442Z,47.40
2018-05-03T22:37:42.991Z,47.40
2018-05-03T22:42:44.629Z,47.80
2018-05-03T22:47:46.175Z,47.60
2018-05-03T22:52:48.437Z,48.10
2018-05-03T22:57:50.059Z,48.10
2018-05-03T23:02:51.595Z,48.30
2018-05-03T23:07:53.891Z,48.30
2018-05-03T23:12:55.439Z,48.30
2018-05-03T23:17:57.703Z,47.80
2018-05-03T23:22:59.251Z,47.70
2018-05-03T23:28:00.791Z,48.10
2018-05-03T23:33:02.312Z,48.10
2018-05-03T23:38:04.595Z,48.40
2018-05-03T23:43:06.166Z,47.80
2018-05-03T23:48:07.668Z,48.10
2018-05-03T23:53:09.311Z,48.40
2018-05-03T23:58:10.839Z,48.30
